sensor_id;sensor_type;location;lat;lon;timestamp;P1;durP1;ratioP1;P2;durP2;ratioP2
7231;SDS011;3657;49.630;11.018;2023-05-16T00:00:00;9.23;;;8.93;;
7231;SDS011;3657;49.630;11.018;2023-05-16T00:02:30;9.77;;;9.47;;
7231;SDS011;3657;49.630;11.018;2023-05-16T00:04:58;9.50;;;9.20;;
7231;SDS011;3657;49.630;11.018;2023-05-16T00:07:25;10.17;;;9.87;;
7231;SDS011;3657;49.630;11.018;2023-05-16T00:09:52;9.83;;;9.50;;
7231;SDS011;3657;49.630;11.018;2023-05-16T00:12:18;9.23;;;9.03;;
7231;SDS011;3657;49.630;11.018;2023-05-16T00:14:46;9.50;;;9.20;;
7231;SDS011;3657;49.630;11.018;2023-05-16T00:17:14;9.23;;;8.93;;
7231;SDS011;3657;49.630;11.018;2023-05-16T00:19:41;9.47;;;8.97;;
7231;SDS011;3657;49.630;11.018;2023-05-16T00:22:10;9.70;;;9.40;;
7231;SDS011;3657;49.630;11.018;2023-05-16T00:24:36;10.53;;;10.23;;
7231;SDS011;3657;49.630;11.018;2023-05-16T00:27:03;9.47;;;9.17;;
7231;SDS011;3657;49.630;11.018;2023-05-16T00:29:30;9.37;;;9.07;;
7231;SDS011;3657;49.630;11.018;2023-05-16T00:31:57;9.60;;;9.30;;
7231;SDS011;3657;49.630;11.018;2023-05-16T00:34:24;9.43;;;9.13;;
7231;SDS011;3657;49.630;11.018;2023-05-16T00:36:50;10.07;;;9.77;;
7231;SDS011;3657;49.630;11.018;2023-05-16T00:39:19;9.10;;;8.90;;
7231;SDS011;3657;49.630;11.018;2023-05-16T00:41:45;9.50;;;9.20;;
7231;SDS011;3657;49.630;11.018;2023-05-16T00:44:12;10.80;;;10.20;;
7231;SDS011;3657;49.630;11.018;2023-05-16T00:46:39;10.90;;;10.20;;
7231;SDS011;3657;49.630;11.018;2023-05-16T00:49:06;10.37;;;10.07;;
7231;SDS011;3657;49.630;11.018;2023-05-16T00:51:34;9.30;;;9.10;;
7231;SDS011;3657;49.630;11.018;2023-05-16T00:54:03;9.53;;;9.23;;
7231;SDS011;3657;49.630;11.018;2023-05-16T00:56:32;10.17;;;9.87;;
7231;SDS011;3657;49.630;11.018;2023-05-16T00:58:59;10.40;;;10.00;;
7231;SDS011;3657;49.630;11.018;2023-05-16T01:01:27;10.53;;;10.23;;
7231;SDS011;3657;49.630;11.018;2023-05-16T01:03:54;9.37;;;9.07;;
7231;SDS011;3657;49.630;11.018;2023-05-16T01:06:21;9.97;;;9.67;;
7231;SDS011;3657;49.630;11.018;2023-05-16T01:08:48;9.80;;;9.50;;
7231;SDS011;3657;49.630;11.018;2023-05-16T01:11:16;10.00;;;9.60;;
7231;SDS011;3657;49.630;11.018;2023-05-16T01:13:54;12.10;;;11.67;;
7231;SDS011;3657;49.630;11.018;2023-05-16T01:16:32;11.03;;;10.73;;
7231;SDS011;3657;49.630;11.018;2023-05-16T01:19:05;10.80;;;10.50;;
7231;SDS011;3657;49.630;11.018;2023-05-16T01:21:41;10.03;;;9.73;;
7231;SDS011;3657;49.630;11.018;2023-05-16T01:24:18;10.97;;;10.67;;
7231;SDS011;3657;49.630;11.018;2023-05-16T01:26:53;10.10;;;9.80;;
7231;SDS011;3657;49.630;11.018;2023-05-16T01:29:21;10.27;;;9.80;;
7231;SDS011;3657;49.630;11.018;2023-05-16T01:31:48;13.80;;;12.97;;
7231;SDS011;3657;49.630;11.018;2023-05-16T01:34:15;10.00;;;9.70;;
7231;SDS011;3657;49.630;11.018;2023-05-16T01:36:43;11.63;;;11.03;;
7231;SDS011;3657;49.630;11.018;2023-05-16T01:39:14;10.17;;;9.87;;
7231;SDS011;3657;49.630;11.018;2023-05-16T01:41:48;10.20;;;9.90;;
7231;SDS011;3657;49.630;11.018;2023-05-16T01:44:25;10.90;;;10.50;;
7231;SDS011;3657;49.630;11.018;2023-05-16T01:46:57;10.00;;;9.70;;
7231;SDS011;3657;49.630;11.018;2023-05-16T01:49:29;10.37;;;10.07;;
7231;SDS011;3657;49.630;11.018;2023-05-16T01:52:01;10.33;;;10.03;;
7231;SDS011;3657;49.630;11.018;2023-05-16T01:54:32;11.10;;;10.70;;
7231;SDS011;3657;49.630;11.018;2023-05-16T01:57:04;11.07;;;10.77;;
7231;SDS011;3657;49.630;11.018;2023-05-16T01:59:33;10.40;;;9.90;;
7231;SDS011;3657;49.630;11.018;2023-05-16T02:02:01;10.13;;;9.83;;
7231;SDS011;3657;49.630;11.018;2023-05-16T02:04:28;10.53;;;10.13;;
7231;SDS011;3657;49.630;11.018;2023-05-16T02:06:55;10.77;;;10.27;;
7231;SDS011;3657;49.630;11.018;2023-05-16T02:09:24;10.43;;;10.13;;
7231;SDS011;3657;49.630;11.018;2023-05-16T02:11:51;10.73;;;10.40;;
7231;SDS011;3657;49.630;11.018;2023-05-16T02:14:19;10.40;;;10.10;;
7231;SDS011;3657;49.630;11.018;2023-05-16T02:16:46;10.27;;;9.97;;
7231;SDS011;3657;49.630;11.018;2023-05-16T02:19:13;10.70;;;10.40;;
7231;SDS011;3657;49.630;11.018;2023-05-16T02:21:40;10.60;;;10.30;;
7231;SDS011;3657;49.630;11.018;2023-05-16T02:24:06;11.00;;;10.60;;
7231;SDS011;3657;49.630;11.018;2023-05-16T02:26:33;10.67;;;10.37;;
7231;SDS011;3657;49.630;11.018;2023-05-16T02:29:00;11.10;;;10.77;;
7231;SDS011;3657;49.630;11.018;2023-05-16T02:31:29;10.47;;;10.17;;
7231;SDS011;3657;49.630;11.018;2023-05-16T02:33:57;11.20;;;10.80;;
7231;SDS011;3657;49.630;11.018;2023-05-16T02:36:24;10.53;;;10.23;;
7231;SDS011;3657;49.630;11.018;2023-05-16T02:38:50;10.23;;;9.83;;
7231;SDS011;3657;49.630;11.018;2023-05-16T02:41:17;10.87;;;10.57;;
7231;SDS011;3657;49.630;11.018;2023-05-16T02:43:46;10.77;;;10.47;;
7231;SDS011;3657;49.630;11.018;2023-05-16T02:46:19;10.30;;;10.00;;
7231;SDS011;3657;49.630;11.018;2023-05-16T02:48:51;10.10;;;9.80;;
7231;SDS011;3657;49.630;11.018;2023-05-16T02:51:19;12.27;;;11.87;;
7231;SDS011;3657;49.630;11.018;2023-05-16T02:53:46;11.67;;;11.37;;
7231;SDS011;3657;49.630;11.018;2023-05-16T02:56:13;10.10;;;9.77;;
7231;SDS011;3657;49.630;11.018;2023-05-16T02:58:40;11.33;;;10.97;;
7231;SDS011;3657;49.630;11.018;2023-05-16T03:01:06;10.73;;;10.43;;
7231;SDS011;3657;49.630;11.018;2023-05-16T03:03:33;10.17;;;9.83;;
7231;SDS011;3657;49.630;11.018;2023-05-16T03:06:03;10.53;;;10.07;;
7231;SDS011;3657;49.630;11.018;2023-05-16T03:08:30;11.80;;;11.30;;
7231;SDS011;3657;49.630;11.018;2023-05-16T03:10:57;10.57;;;10.17;;
7231;SDS011;3657;49.630;11.018;2023-05-16T03:13:24;10.87;;;10.57;;
7231;SDS011;3657;49.630;11.018;2023-05-16T03:15:50;14.87;;;14.27;;
7231;SDS011;3657;49.630;11.018;2023-05-16T03:18:17;10.47;;;10.17;;
7231;SDS011;3657;49.630;11.018;2023-05-16T03:20:45;10.20;;;9.90;;
7231;SDS011;3657;49.630;11.018;2023-05-16T03:23:13;10.13;;;9.73;;
7231;SDS011;3657;49.630;11.018;2023-05-16T03:25:39;11.50;;;11.10;;
7231;SDS011;3657;49.630;11.018;2023-05-16T03:28:07;10.93;;;10.63;;
7231;SDS011;3657;49.630;11.018;2023-05-16T03:30:34;11.67;;;11.17;;
7231;SDS011;3657;49.630;11.018;2023-05-16T03:33:00;10.93;;;10.57;;
7231;SDS011;3657;49.630;11.018;2023-05-16T03:35:28;12.17;;;11.67;;
7231;SDS011;3657;49.630;11.018;2023-05-16T03:37:54;12.50;;;12.07;;
7231;SDS011;3657;49.630;11.018;2023-05-16T03:40:22;10.93;;;10.60;;
7231;SDS011;3657;49.630;11.018;2023-05-16T03:42:49;10.20;;;9.87;;
7231;SDS011;3657;49.630;11.018;2023-05-16T03:45:16;11.87;;;11.47;;
7231;SDS011;3657;49.630;11.018;2023-05-16T03:47:42;11.20;;;10.90;;
7231;SDS011;3657;49.630;11.018;2023-05-16T03:50:09;11.30;;;10.90;;
7231;SDS011;3657;49.630;11.018;2023-05-16T03:52:36;11.63;;;11.23;;
7231;SDS011;3657;49.630;11.018;2023-05-16T03:55:03;11.37;;;11.07;;
7231;SDS011;3657;49.630;11.018;2023-05-16T03:57:32;11.97;;;11.57;;
7231;SDS011;3657;49.630;11.018;2023-05-16T03:59:59;11.57;;;11.27;;
7231;SDS011;3657;49.630;11.018;2023-05-16T04:02:26;10.30;;;10.00;;
7231;SDS011;3657;49.630;11.018;2023-05-16T04:04:52;10.20;;;9.90;;
7231;SDS011;3657;49.630;11.018;2023-05-16T04:07:19;10.90;;;10.60;;
7231;SDS011;3657;49.630;11.018;2023-05-16T04:09:46;11.10;;;10.70;;
7231;SDS011;3657;49.630;11.018;2023-05-16T04:12:13;11.57;;;11.17;;
7231;SDS011;3657;49.630;11.018;2023-05-16T04:14:40;11.13;;;10.83;;
7231;SDS011;3657;49.630;11.018;2023-05-16T04:17:07;11.83;;;11.50;;
7231;SDS011;3657;49.630;11.018;2023-05-16T04:19:34;11.83;;;11.47;;
7231;SDS011;3657;49.630;11.018;2023-05-16T04:22:01;11.97;;;11.40;;
7231;SDS011;3657;49.630;11.018;2023-05-16T04:24:28;12.27;;;11.87;;
7231;SDS011;3657;49.630;11.018;2023-05-16T04:26:54;11.27;;;10.73;;
7231;SDS011;3657;49.630;11.018;2023-05-16T04:29:21;11.70;;;11.40;;
7231;SDS011;3657;49.630;11.018;2023-05-16T04:31:49;12.20;;;11.60;;
7231;SDS011;3657;49.630;11.018;2023-05-16T04:34:16;11.37;;;10.87;;
7231;SDS011;3657;49.630;11.018;2023-05-16T04:36:42;12.03;;;11.63;;
7231;SDS011;3657;49.630;11.018;2023-05-16T04:39:09;12.30;;;11.83;;
7231;SDS011;3657;49.630;11.018;2023-05-16T04:41:36;11.43;;;11.03;;
7231;SDS011;3657;49.630;11.018;2023-05-16T04:44:03;11.50;;;11.20;;
7231;SDS011;3657;49.630;11.018;2023-05-16T04:46:30;12.00;;;11.60;;
7231;SDS011;3657;49.630;11.018;2023-05-16T04:48:58;11.83;;;11.33;;
7231;SDS011;3657;49.630;11.018;2023-05-16T04:51:24;13.30;;;12.73;;
7231;SDS011;3657;49.630;11.018;2023-05-16T04:53:51;12.47;;;11.97;;
7231;SDS011;3657;49.630;11.018;2023-05-16T04:56:18;11.13;;;10.83;;
7231;SDS011;3657;49.630;11.018;2023-05-16T04:58:44;11.93;;;11.53;;
7231;SDS011;3657;49.630;11.018;2023-05-16T05:01:11;13.07;;;12.50;;
7231;SDS011;3657;49.630;11.018;2023-05-16T05:03:38;13.07;;;12.57;;
7231;SDS011;3657;49.630;11.018;2023-05-16T05:06:06;12.53;;;12.13;;
7231;SDS011;3657;49.630;11.018;2023-05-16T05:08:32;13.47;;;12.97;;
7231;SDS011;3657;49.630;11.018;2023-05-16T05:10:59;12.13;;;11.73;;
7231;SDS011;3657;49.630;11.018;2023-05-16T05:13:26;12.83;;;12.40;;
7231;SDS011;3657;49.630;11.018;2023-05-16T05:15:53;12.27;;;11.87;;
7231;SDS011;3657;49.630;11.018;2023-05-16T05:18:20;12.03;;;11.70;;
7231;SDS011;3657;49.630;11.018;2023-05-16T05:20:47;12.73;;;12.23;;
7231;SDS011;3657;49.630;11.018;2023-05-16T05:23:14;12.60;;;12.20;;
7231;SDS011;3657;49.630;11.018;2023-05-16T05:25:42;11.73;;;11.43;;
7231;SDS011;3657;49.630;11.018;2023-05-16T05:28:11;12.53;;;12.13;;
7231;SDS011;3657;49.630;11.018;2023-05-16T05:30:38;13.73;;;13.13;;
7231;SDS011;3657;49.630;11.018;2023-05-16T05:33:05;12.73;;;12.23;;
7231;SDS011;3657;49.630;11.018;2023-05-16T05:35:31;13.13;;;12.63;;
7231;SDS011;3657;49.630;11.018;2023-05-16T05:37:58;13.13;;;12.53;;
7231;SDS011;3657;49.630;11.018;2023-05-16T05:40:27;11.97;;;11.57;;
7231;SDS011;3657;49.630;11.018;2023-05-16T05:42:53;11.93;;;11.43;;
7231;SDS011;3657;49.630;11.018;2023-05-16T05:45:20;12.23;;;11.83;;
7231;SDS011;3657;49.630;11.018;2023-05-16T05:47:46;12.20;;;11.80;;
7231;SDS011;3657;49.630;11.018;2023-05-16T05:50:13;11.60;;;11.30;;
7231;SDS011;3657;49.630;11.018;2023-05-16T05:52:40;12.27;;;11.87;;
7231;SDS011;3657;49.630;11.018;2023-05-16T05:55:07;11.37;;;11.00;;
7231;SDS011;3657;49.630;11.018;2023-05-16T05:57:35;13.63;;;12.93;;
7231;SDS011;3657;49.630;11.018;2023-05-16T06:00:02;12.83;;;12.33;;
7231;SDS011;3657;49.630;11.018;2023-05-16T06:02:31;13.03;;;12.60;;
7231;SDS011;3657;49.630;11.018;2023-05-16T06:04:57;11.70;;;11.33;;
7231;SDS011;3657;49.630;11.018;2023-05-16T06:07:24;14.80;;;14.20;;
7231;SDS011;3657;49.630;11.018;2023-05-16T06:09:50;12.47;;;11.87;;
7231;SDS011;3657;49.630;11.018;2023-05-16T06:12:17;11.90;;;11.60;;
7231;SDS011;3657;49.630;11.018;2023-05-16T06:14:45;11.90;;;11.60;;
7231;SDS011;3657;49.630;11.018;2023-05-16T06:17:12;13.00;;;12.47;;
7231;SDS011;3657;49.630;11.018;2023-05-16T06:19:38;12.40;;;11.90;;
7231;SDS011;3657;49.630;11.018;2023-05-16T06:22:05;11.80;;;11.40;;
7231;SDS011;3657;49.630;11.018;2023-05-16T06:24:32;12.67;;;12.27;;
7231;SDS011;3657;49.630;11.018;2023-05-16T06:26:58;12.27;;;11.87;;
7231;SDS011;3657;49.630;11.018;2023-05-16T06:29:25;12.80;;;12.30;;
7231;SDS011;3657;49.630;11.018;2023-05-16T06:31:53;13.03;;;12.53;;
7231;SDS011;3657;49.630;11.018;2023-05-16T06:34:20;15.60;;;14.77;;
7231;SDS011;3657;49.630;11.018;2023-05-16T06:36:51;12.73;;;12.23;;
7231;SDS011;3657;49.630;11.018;2023-05-16T06:39:18;15.30;;;14.33;;
7231;SDS011;3657;49.630;11.018;2023-05-16T06:41:44;15.87;;;15.20;;
7231;SDS011;3657;49.630;11.018;2023-05-16T06:44:11;13.60;;;13.10;;
7231;SDS011;3657;49.630;11.018;2023-05-16T06:46:38;18.20;;;17.07;;
7231;SDS011;3657;49.630;11.018;2023-05-16T06:49:06;13.87;;;13.17;;
7231;SDS011;3657;49.630;11.018;2023-05-16T06:51:32;27.07;;;24.87;;
7231;SDS011;3657;49.630;11.018;2023-05-16T06:53:59;28.50;;;26.37;;
7231;SDS011;3657;49.630;11.018;2023-05-16T06:56:26;19.37;;;18.20;;
7231;SDS011;3657;49.630;11.018;2023-05-16T06:58:53;18.40;;;17.50;;
7231;SDS011;3657;49.630;11.018;2023-05-16T07:01:20;17.93;;;17.00;;
7231;SDS011;3657;49.630;11.018;2023-05-16T07:03:46;18.80;;;17.80;;
7231;SDS011;3657;49.630;11.018;2023-05-16T07:06:14;18.17;;;17.27;;
7231;SDS011;3657;49.630;11.018;2023-05-16T07:08:41;16.50;;;15.90;;
7231;SDS011;3657;49.630;11.018;2023-05-16T07:11:08;19.33;;;18.33;;
7231;SDS011;3657;49.630;11.018;2023-05-16T07:13:35;18.00;;;17.10;;
7231;SDS011;3657;49.630;11.018;2023-05-16T07:16:02;18.17;;;17.13;;
7231;SDS011;3657;49.630;11.018;2023-05-16T07:18:29;17.07;;;16.17;;
7231;SDS011;3657;49.630;11.018;2023-05-16T07:20:55;16.77;;;15.83;;
7231;SDS011;3657;49.630;11.018;2023-05-16T07:23:24;16.73;;;15.97;;
7231;SDS011;3657;49.630;11.018;2023-05-16T07:25:50;16.67;;;15.77;;
7231;SDS011;3657;49.630;11.018;2023-05-16T07:28:17;15.00;;;14.50;;
7231;SDS011;3657;49.630;11.018;2023-05-16T07:30:44;17.33;;;16.47;;
7231;SDS011;3657;49.630;11.018;2023-05-16T07:33:11;15.50;;;14.87;;
7231;SDS011;3657;49.630;11.018;2023-05-16T07:35:37;16.60;;;15.80;;
7231;SDS011;3657;49.630;11.018;2023-05-16T07:38:04;15.90;;;15.30;;
7231;SDS011;3657;49.630;11.018;2023-05-16T07:40:32;16.23;;;15.43;;
7231;SDS011;3657;49.630;11.018;2023-05-16T07:42:59;17.30;;;16.50;;
7231;SDS011;3657;49.630;11.018;2023-05-16T07:45:26;14.17;;;13.67;;
7231;SDS011;3657;49.630;11.018;2023-05-16T07:47:53;14.30;;;13.70;;
7231;SDS011;3657;49.630;11.018;2023-05-16T07:50:20;16.10;;;15.20;;
7231;SDS011;3657;49.630;11.018;2023-05-16T07:52:46;16.87;;;16.13;;
7231;SDS011;3657;49.630;11.018;2023-05-16T07:55:13;14.40;;;13.80;;
7231;SDS011;3657;49.630;11.018;2023-05-16T07:57:41;13.47;;;12.97;;
7231;SDS011;3657;49.630;11.018;2023-05-16T08:00:09;13.37;;;12.80;;
7231;SDS011;3657;49.630;11.018;2023-05-16T08:02:36;12.83;;;12.33;;
7231;SDS011;3657;49.630;11.018;2023-05-16T08:05:03;11.10;;;10.60;;
7231;SDS011;3657;49.630;11.018;2023-05-16T08:07:31;14.00;;;13.23;;
7231;SDS011;3657;49.630;11.018;2023-05-16T08:09:57;12.67;;;12.17;;
7231;SDS011;3657;49.630;11.018;2023-05-16T08:12:24;16.97;;;16.17;;
7231;SDS011;3657;49.630;11.018;2023-05-16T08:14:53;15.53;;;14.73;;
7231;SDS011;3657;49.630;11.018;2023-05-16T08:17:19;13.17;;;12.57;;
7231;SDS011;3657;49.630;11.018;2023-05-16T08:19:46;12.80;;;12.43;;
7231;SDS011;3657;49.630;11.018;2023-05-16T08:22:13;16.83;;;15.90;;
7231;SDS011;3657;49.630;11.018;2023-05-16T08:24:40;15.57;;;14.90;;
7231;SDS011;3657;49.630;11.018;2023-05-16T08:27:07;13.03;;;12.63;;
7231;SDS011;3657;49.630;11.018;2023-05-16T08:29:35;13.50;;;12.90;;
7231;SDS011;3657;49.630;11.018;2023-05-16T08:32:03;13.90;;;13.07;;
7231;SDS011;3657;49.630;11.018;2023-05-16T08:34:30;16.17;;;15.27;;
7231;SDS011;3657;49.630;11.018;2023-05-16T08:36:57;15.73;;;14.80;;
7231;SDS011;3657;49.630;11.018;2023-05-16T08:39:24;14.10;;;13.40;;
7231;SDS011;3657;49.630;11.018;2023-05-16T08:41:51;13.50;;;12.87;;
7231;SDS011;3657;49.630;11.018;2023-05-16T08:44:17;16.47;;;15.83;;
7231;SDS011;3657;49.630;11.018;2023-05-16T08:46:47;14.10;;;13.50;;
7231;SDS011;3657;49.630;11.018;2023-05-16T08:49:19;14.13;;;13.43;;
7231;SDS011;3657;49.630;11.018;2023-05-16T08:51:46;17.60;;;16.63;;
7231;SDS011;3657;49.630;11.018;2023-05-16T08:54:14;15.33;;;14.63;;
7231;SDS011;3657;49.630;11.018;2023-05-16T08:56:42;16.37;;;15.60;;
7231;SDS011;3657;49.630;11.018;2023-05-16T08:59:10;14.83;;;14.10;;
7231;SDS011;3657;49.630;11.018;2023-05-16T09:01:37;14.40;;;13.90;;
7231;SDS011;3657;49.630;11.018;2023-05-16T09:04:05;16.67;;;16.03;;
7231;SDS011;3657;49.630;11.018;2023-05-16T09:06:34;17.37;;;16.53;;
7231;SDS011;3657;49.630;11.018;2023-05-16T09:09:00;19.47;;;18.37;;
7231;SDS011;3657;49.630;11.018;2023-05-16T09:11:28;16.87;;;15.97;;
7231;SDS011;3657;49.630;11.018;2023-05-16T09:13:55;18.67;;;17.67;;
7231;SDS011;3657;49.630;11.018;2023-05-16T09:16:21;16.33;;;15.63;;
7231;SDS011;3657;49.630;11.018;2023-05-16T09:18:52;15.90;;;15.20;;
7231;SDS011;3657;49.630;11.018;2023-05-16T09:21:21;15.57;;;14.80;;
7231;SDS011;3657;49.630;11.018;2023-05-16T09:23:49;14.93;;;14.03;;
7231;SDS011;3657;49.630;11.018;2023-05-16T09:26:16;16.43;;;15.53;;
7231;SDS011;3657;49.630;11.018;2023-05-16T09:28:44;15.27;;;14.57;;
7231;SDS011;3657;49.630;11.018;2023-05-16T09:31:20;13.60;;;12.90;;
7231;SDS011;3657;49.630;11.018;2023-05-16T09:33:47;14.30;;;13.50;;
7231;SDS011;3657;49.630;11.018;2023-05-16T09:36:14;14.83;;;13.93;;
7231;SDS011;3657;49.630;11.018;2023-05-16T09:38:41;14.03;;;13.43;;
7231;SDS011;3657;49.630;11.018;2023-05-16T09:41:09;12.20;;;11.80;;
7231;SDS011;3657;49.630;11.018;2023-05-16T09:43:37;14.70;;;14.00;;
7231;SDS011;3657;49.630;11.018;2023-05-16T09:46:04;12.57;;;12.13;;
7231;SDS011;3657;49.630;11.018;2023-05-16T09:48:31;15.10;;;14.30;;
7231;SDS011;3657;49.630;11.018;2023-05-16T09:50:58;13.83;;;12.60;;
7231;SDS011;3657;49.630;11.018;2023-05-16T09:53:28;12.50;;;12.00;;
7231;SDS011;3657;49.630;11.018;2023-05-16T09:55:59;13.90;;;13.40;;
7231;SDS011;3657;49.630;11.018;2023-05-16T09:58:29;12.27;;;11.87;;
7231;SDS011;3657;49.630;11.018;2023-05-16T10:00:56;13.13;;;12.63;;
7231;SDS011;3657;49.630;11.018;2023-05-16T10:03:24;12.97;;;12.57;;
7231;SDS011;3657;49.630;11.018;2023-05-16T10:05:51;12.53;;;11.83;;
7231;SDS011;3657;49.630;11.018;2023-05-16T10:08:19;15.90;;;14.93;;
7231;SDS011;3657;49.630;11.018;2023-05-16T10:10:48;13.10;;;12.50;;
7231;SDS011;3657;49.630;11.018;2023-05-16T10:13:17;12.20;;;11.70;;
7231;SDS011;3657;49.630;11.018;2023-05-16T10:15:47;12.50;;;12.10;;
7231;SDS011;3657;49.630;11.018;2023-05-16T10:18:14;12.83;;;12.43;;
7231;SDS011;3657;49.630;11.018;2023-05-16T10:20:44;11.83;;;11.53;;
7231;SDS011;3657;49.630;11.018;2023-05-16T10:23:15;11.70;;;11.30;;
7231;SDS011;3657;49.630;11.018;2023-05-16T10:25:44;12.43;;;11.83;;
7231;SDS011;3657;49.630;11.018;2023-05-16T10:28:12;13.63;;;12.87;;
7231;SDS011;3657;49.630;11.018;2023-05-16T10:30:40;11.70;;;11.23;;
7231;SDS011;3657;49.630;11.018;2023-05-16T10:33:10;11.70;;;11.40;;
7231;SDS011;3657;49.630;11.018;2023-05-16T10:35:37;11.63;;;11.13;;
7231;SDS011;3657;49.630;11.018;2023-05-16T10:38:04;12.20;;;11.57;;
7231;SDS011;3657;49.630;11.018;2023-05-16T10:40:32;11.63;;;11.00;;
7231;SDS011;3657;49.630;11.018;2023-05-16T10:43:01;10.03;;;9.73;;
7231;SDS011;3657;49.630;11.018;2023-05-16T10:45:28;11.00;;;10.60;;
7231;SDS011;3657;49.630;11.018;2023-05-16T10:47:56;10.57;;;10.20;;
7231;SDS011;3657;49.630;11.018;2023-05-16T10:50:32;9.73;;;9.43;;
7231;SDS011;3657;49.630;11.018;2023-05-16T10:53:10;10.10;;;9.70;;
7231;SDS011;3657;49.630;11.018;2023-05-16T10:55:38;10.17;;;9.83;;
7231;SDS011;3657;49.630;11.018;2023-05-16T10:58:05;10.13;;;9.83;;
7231;SDS011;3657;49.630;11.018;2023-05-16T11:00:32;10.07;;;9.67;;
7231;SDS011;3657;49.630;11.018;2023-05-16T11:03:03;10.27;;;9.67;;
7231;SDS011;3657;49.630;11.018;2023-05-16T11:05:30;10.00;;;9.57;;
7231;SDS011;3657;49.630;11.018;2023-05-16T11:08:02;10.67;;;10.07;;
7231;SDS011;3657;49.630;11.018;2023-05-16T11:10:30;9.90;;;9.43;;
7231;SDS011;3657;49.630;11.018;2023-05-16T11:13:01;10.13;;;9.83;;
7231;SDS011;3657;49.630;11.018;2023-05-16T11:15:32;9.60;;;9.07;;
7231;SDS011;3657;49.630;11.018;2023-05-16T11:18:02;9.27;;;8.87;;
7231;SDS011;3657;49.630;11.018;2023-05-16T11:20:31;9.33;;;9.03;;
7231;SDS011;3657;49.630;11.018;2023-05-16T11:25:53;8.97;;;8.67;;
7231;SDS011;3657;49.630;11.018;2023-05-16T11:28:22;9.03;;;8.73;;
7231;SDS011;3657;49.630;11.018;2023-05-16T11:30:50;8.43;;;8.23;;
7231;SDS011;3657;49.630;11.018;2023-05-16T11:33:20;9.33;;;8.90;;
7231;SDS011;3657;49.630;11.018;2023-05-16T11:36:02;9.87;;;9.33;;
7231;SDS011;3657;49.630;11.018;2023-05-16T11:38:30;10.57;;;10.27;;
7231;SDS011;3657;49.630;11.018;2023-05-16T11:41:04;11.10;;;10.80;;
7231;SDS011;3657;49.630;11.018;2023-05-16T11:43:40;10.53;;;9.90;;
7231;SDS011;3657;49.630;11.018;2023-05-16T11:46:12;9.73;;;9.33;;
7231;SDS011;3657;49.630;11.018;2023-05-16T11:48:39;9.90;;;9.50;;
7231;SDS011;3657;49.630;11.018;2023-05-16T11:51:08;9.83;;;9.53;;
7231;SDS011;3657;49.630;11.018;2023-05-16T11:53:35;9.17;;;8.87;;
7231;SDS011;3657;49.630;11.018;2023-05-16T11:56:03;9.03;;;8.63;;
7231;SDS011;3657;49.630;11.018;2023-05-16T11:58:33;9.30;;;8.90;;
7231;SDS011;3657;49.630;11.018;2023-05-16T12:01:02;10.40;;;9.90;;
7231;SDS011;3657;49.630;11.018;2023-05-16T12:03:29;9.40;;;8.73;;
7231;SDS011;3657;49.630;11.018;2023-05-16T12:05:57;9.10;;;8.80;;
7231;SDS011;3657;49.630;11.018;2023-05-16T12:08:26;9.13;;;8.70;;
7231;SDS011;3657;49.630;11.018;2023-05-16T12:10:52;8.13;;;7.73;;
7231;SDS011;3657;49.630;11.018;2023-05-16T12:13:20;10.77;;;10.07;;
7231;SDS011;3657;49.630;11.018;2023-05-16T12:15:49;8.97;;;8.50;;
7231;SDS011;3657;49.630;11.018;2023-05-16T12:18:16;8.23;;;7.70;;
7231;SDS011;3657;49.630;11.018;2023-05-16T12:20:45;8.60;;;8.20;;
7231;SDS011;3657;49.630;11.018;2023-05-16T12:23:11;8.93;;;8.30;;
7231;SDS011;3657;49.630;11.018;2023-05-16T12:25:43;8.47;;;8.17;;
7231;SDS011;3657;49.630;11.018;2023-05-16T12:28:11;10.13;;;9.73;;
7231;SDS011;3657;49.630;11.018;2023-05-16T12:30:39;11.10;;;10.60;;
7231;SDS011;3657;49.630;11.018;2023-05-16T12:33:08;9.13;;;8.80;;
7231;SDS011;3657;49.630;11.018;2023-05-16T12:35:37;9.23;;;8.93;;
7231;SDS011;3657;49.630;11.018;2023-05-16T12:38:05;7.67;;;7.47;;
7231;SDS011;3657;49.630;11.018;2023-05-16T12:40:33;7.73;;;7.53;;
7231;SDS011;3657;49.630;11.018;2023-05-16T12:43:03;8.10;;;7.90;;
7231;SDS011;3657;49.630;11.018;2023-05-16T12:45:30;8.60;;;8.20;;
7231;SDS011;3657;49.630;11.018;2023-05-16T12:48:02;7.83;;;7.53;;
7231;SDS011;3657;49.630;11.018;2023-05-16T12:50:30;8.10;;;7.80;;
7231;SDS011;3657;49.630;11.018;2023-05-16T12:52:58;7.87;;;7.57;;
7231;SDS011;3657;49.630;11.018;2023-05-16T12:55:26;8.60;;;8.20;;
7231;SDS011;3657;49.630;11.018;2023-05-16T12:57:53;9.40;;;9.00;;
7231;SDS011;3657;49.630;11.018;2023-05-16T13:00:23;7.40;;;7.10;;
7231;SDS011;3657;49.630;11.018;2023-05-16T13:02:50;7.93;;;7.73;;
7231;SDS011;3657;49.630;11.018;2023-05-16T13:05:17;7.70;;;7.40;;
7231;SDS011;3657;49.630;11.018;2023-05-16T13:07:45;7.77;;;7.57;;
7231;SDS011;3657;49.630;11.018;2023-05-16T13:10:11;7.43;;;7.23;;
7231;SDS011;3657;49.630;11.018;2023-05-16T13:12:38;6.87;;;6.50;;
7231;SDS011;3657;49.630;11.018;2023-05-16T13:15:06;6.70;;;6.50;;
7231;SDS011;3657;49.630;11.018;2023-05-16T13:17:35;6.30;;;6.10;;
7231;SDS011;3657;49.630;11.018;2023-05-16T13:20:03;6.47;;;6.23;;
7231;SDS011;3657;49.630;11.018;2023-05-16T13:22:32;5.27;;;5.17;;
7231;SDS011;3657;49.630;11.018;2023-05-16T13:25:00;6.67;;;6.47;;
7231;SDS011;3657;49.630;11.018;2023-05-16T13:27:26;5.50;;;5.30;;
7231;SDS011;3657;49.630;11.018;2023-05-16T13:29:53;5.93;;;5.73;;
7231;SDS011;3657;49.630;11.018;2023-05-16T13:32:20;5.70;;;5.40;;
7231;SDS011;3657;49.630;11.018;2023-05-16T13:34:47;5.73;;;5.37;;
7231;SDS011;3657;49.630;11.018;2023-05-16T13:37:14;5.97;;;5.87;;
7231;SDS011;3657;49.630;11.018;2023-05-16T13:39:41;5.33;;;5.23;;
7231;SDS011;3657;49.630;11.018;2023-05-16T13:42:07;6.07;;;5.83;;
7231;SDS011;3657;49.630;11.018;2023-05-16T13:44:35;5.67;;;5.40;;
7231;SDS011;3657;49.630;11.018;2023-05-16T13:47:02;6.07;;;5.77;;
7231;SDS011;3657;49.630;11.018;2023-05-16T13:49:28;6.23;;;5.87;;
7231;SDS011;3657;49.630;11.018;2023-05-16T13:51:56;5.77;;;5.57;;
7231;SDS011;3657;49.630;11.018;2023-05-16T13:54:25;6.13;;;5.93;;
7231;SDS011;3657;49.630;11.018;2023-05-16T13:56:52;4.97;;;4.87;;
7231;SDS011;3657;49.630;11.018;2023-05-16T13:59:18;6.37;;;6.07;;
7231;SDS011;3657;49.630;11.018;2023-05-16T14:01:45;5.20;;;5.00;;
7231;SDS011;3657;49.630;11.018;2023-05-16T14:04:12;5.70;;;5.50;;
7231;SDS011;3657;49.630;11.018;2023-05-16T14:06:39;5.83;;;5.63;;
7231;SDS011;3657;49.630;11.018;2023-05-16T14:09:07;4.50;;;4.40;;
7231;SDS011;3657;49.630;11.018;2023-05-16T14:11:33;5.40;;;5.10;;
7231;SDS011;3657;49.630;11.018;2023-05-16T14:14:00;5.53;;;5.13;;
7231;SDS011;3657;49.630;11.018;2023-05-16T14:16:26;5.23;;;4.93;;
7231;SDS011;3657;49.630;11.018;2023-05-16T14:18:55;5.73;;;5.50;;
7231;SDS011;3657;49.630;11.018;2023-05-16T14:21:21;5.10;;;5.00;;
7231;SDS011;3657;49.630;11.018;2023-05-16T14:23:48;4.00;;;3.80;;
7231;SDS011;3657;49.630;11.018;2023-05-16T14:26:17;4.50;;;4.30;;
7231;SDS011;3657;49.630;11.018;2023-05-16T14:28:46;4.27;;;4.17;;
7231;SDS011;3657;49.630;11.018;2023-05-16T14:31:13;5.10;;;5.00;;
7231;SDS011;3657;49.630;11.018;2023-05-16T14:33:40;5.37;;;4.87;;
7231;SDS011;3657;49.630;11.018;2023-05-16T14:36:07;5.00;;;4.90;;
7231;SDS011;3657;49.630;11.018;2023-05-16T14:38:34;4.43;;;4.33;;
7231;SDS011;3657;49.630;11.018;2023-05-16T14:41:01;5.50;;;5.30;;
7231;SDS011;3657;49.630;11.018;2023-05-16T14:43:29;4.83;;;4.73;;
7231;SDS011;3657;49.630;11.018;2023-05-16T14:45:56;4.10;;;4.00;;
7231;SDS011;3657;49.630;11.018;2023-05-16T14:48:23;5.40;;;5.10;;